Terminal Aerodrome Forecast
Issued by NWS

Home | Current Version | Previous Version | Text Only | Print | Product List | Glossary Off
Versions: 1 2 3 4 5 6 7 8 9 10 11 12 13 14 15 16 17 18

000
FTUS43 KGRB 170900 AAA
TAFRHI
TAF AMD
KRHI 170942Z 1710/1806 11012G19KT 1SM -SN BR SCT009 BKN018
      WS015/15040KT
      TEMPO 1710/1713 1/2SM SN VV005
     FM171400 16009G15KT 2SM -SN BKN012
      TEMPO 1715/1717 4SM -RA BR
     FM171700 24010G18KT P6SM BKN025
     FM172300 28009KT P6SM BKN035
     FM180300 28004KT 4SM BR SCT004=

USA.gov is the U.S. government's official web portal to all federal, state and local government web resources and services.